Time;durP1;ratioP1;P1;durP2;ratioP2;P2;SDS_P1;SDS_P2;PMS_P1;PMS_P2;Temp;Humidity;BMP_temperature;BMP_pressure;BME280_temperature;BME280_humidity;BME280_pressure;Samples;Min_cycle;Max_cycle;Signal;HPM_P1;HPM_P2
2024/01/13 00:01:28;;;;;;;29.60;17.15;;;;;;;;;;5101653;28;20012;-73
2024/01/13 00:03:53;;;;;;;28.02;17.80;;;;;;;;;;5107105;28;20069;-73
2024/01/13 00:06:18;;;;;;;30.63;15.83;;;;;;;;;;5099476;28;20016;-73
2024/01/13 00:08:43;;;;;;;26.85;14.85;;;;;;;;;;5107573;28;20615;-73
2024/01/13 00:11:09;;;;;;;26.87;15.97;;;;;;;;;;5101303;28;20472;-73
2024/01/13 00:13:34;;;;;;;27.17;15.90;;;;;;;;;;5112316;28;20330;-73
2024/01/13 00:15:59;;;;;;;26.08;15.73;;;;;;;;;;5103704;28;20622;-73
2024/01/13 00:18:25;;;;;;;25.17;15.50;;;;;;;;;;5104332;28;20020;-73
2024/01/13 00:20:50;;;;;;;26.52;16.23;;;;;;;;;;5109630;28;20031;-73
2024/01/13 00:23:15;;;;;;;25.73;16.27;;;;;;;;;;5108658;28;20096;-73
2024/01/13 00:25:40;;;;;;;25.40;15.17;;;;;;;;;;5109381;28;20362;-73
2024/01/13 00:28:06;;;;;;;26.93;16.20;;;;;;;;;;5106777;28;20273;-73
2024/01/13 00:30:31;;;;;;;26.98;15.40;;;;;;;;;;5108744;28;20780;-73
2024/01/13 00:32:56;;;;;;;21.33;13.57;;;;;;;;;;5109677;28;20024;-73
2024/01/13 00:35:21;;;;;;;29.30;15.07;;;;;;;;;;5105632;28;20266;-73
2024/01/13 00:37:46;;;;;;;26.20;14.80;;;;;;;;;;5109845;28;20272;-73
2024/01/13 00:40:12;;;;;;;21.83;14.17;;;;;;;;;;5106698;28;20313;-73
2024/01/13 00:42:38;;;;;;;30.30;15.02;;;;;;;;;;5111428;28;20270;-73
2024/01/13 00:45:03;;;;;;;24.27;14.32;;;;;;;;;;5105839;28;20459;-73
2024/01/13 00:47:28;;;;;;;23.42;14.45;;;;;;;;;;5110927;28;20035;-73
2024/01/13 00:49:53;;;;;;;23.47;13.57;;;;;;;;;;5106157;28;20549;-73
2024/01/13 00:52:19;;;;;;;21.63;14.38;;;;;;;;;;5105680;28;20266;-73
2024/01/13 00:54:44;;;;;;;22.23;14.20;;;;;;;;;;5106789;28;20044;-73
2024/01/13 00:57:09;;;;;;;23.73;14.63;;;;;;;;;;5108338;28;20298;-73
2024/01/13 00:59:35;;;;;;;22.75;14.35;;;;;;;;;;5112095;28;20082;-73
2024/01/13 01:02:00;;;;;;;23.15;13.52;;;;;;;;;;5107043;28;20043;-73
2024/01/13 01:04:25;;;;;;;20.43;12.77;;;;;;;;;;5111694;28;20020;-73
2024/01/13 01:06:50;;;;;;;20.20;12.90;;;;;;;;;;5107159;28;20398;-73
2024/01/13 01:09:16;;;;;;;20.87;13.30;;;;;;;;;;5107743;28;20791;-73
2024/01/13 01:11:42;;;;;;;20.60;13.65;;;;;;;;;;5104888;28;20274;-73
2024/01/13 01:14:07;;;;;;;19.05;13.23;;;;;;;;;;5107039;28;20069;-73
2024/01/13 01:16:33;;;;;;;25.90;13.30;;;;;;;;;;5106709;28;20024;-73
2024/01/13 01:18:58;;;;;;;21.70;13.30;;;;;;;;;;5106102;28;20417;-73
2024/01/13 01:21:23;;;;;;;23.10;13.70;;;;;;;;;;5105254;28;20031;-73
2024/01/13 01:23:49;;;;;;;22.50;13.90;;;;;;;;;;5104090;28;20023;-73
2024/01/13 01:26:14;;;;;;;21.83;13.47;;;;;;;;;;5107940;28;20679;-73
2024/01/13 01:28:39;;;;;;;21.60;13.10;;;;;;;;;;5103865;28;20270;-73
2024/01/13 01:31:04;;;;;;;26.08;13.02;;;;;;;;;;5108517;28;20062;-73
2024/01/13 01:33:29;;;;;;;21.03;13.17;;;;;;;;;;5103250;28;20455;-73
2024/01/13 01:35:55;;;;;;;22.60;13.53;;;;;;;;;;5109431;28;20306;-73
2024/01/13 01:38:20;;;;;;;20.63;13.90;;;;;;;;;;5102161;28;20266;-73
2024/01/13 01:40:51;;;;;;;25.67;14.90;;;;;;;;;;5108279;28;20305;-73
2024/01/13 01:43:17;;;;;;;25.08;13.95;;;;;;;;;;5103197;28;20262;-73
2024/01/13 01:45:42;;;;;;;21.02;13.98;;;;;;;;;;5106318;28;20023;-73
2024/01/13 01:48:08;;;;;;;23.70;14.88;;;;;;;;;;5109215;28;20023;-73
2024/01/13 01:50:33;;;;;;;22.55;14.48;;;;;;;;;;5105716;28;20022;-73
2024/01/13 01:52:58;;;;;;;25.08;15.50;;;;;;;;;;5106289;28;20023;-73
2024/01/13 01:55:24;;;;;;;33.22;16.60;;;;;;;;;;5103731;28;20078;-73
2024/01/13 01:57:50;;;;;;;24.85;16.30;;;;;;;;;;5111625;28;20015;-73
2024/01/13 02:00:17;;;;;;;24.92;15.90;;;;;;;;;;5110379;28;20036;-73
2024/01/13 02:02:43;;;;;;;25.55;15.30;;;;;;;;;;5106085;28;20050;-74
2024/01/13 02:05:09;;;;;;;28.13;16.33;;;;;;;;;;5112954;28;20047;-73
2024/01/13 02:07:34;;;;;;;25.35;15.88;;;;;;;;;;5103158;28;20026;-73
2024/01/13 02:10:00;;;;;;;24.15;15.90;;;;;;;;;;5105076;28;20042;-73
2024/01/13 02:12:25;;;;;;;28.65;17.50;;;;;;;;;;5105919;28;20015;-73
2024/01/13 02:14:51;;;;;;;23.02;15.93;;;;;;;;;;5102051;28;20087;-73
2024/01/13 02:17:16;;;;;;;25.90;16.67;;;;;;;;;;5104151;28;20481;-73
2024/01/13 02:19:41;;;;;;;26.13;16.30;;;;;;;;;;5103441;28;20465;-73
2024/01/13 02:22:06;;;;;;;25.40;16.55;;;;;;;;;;5104941;28;20471;-73
2024/01/13 02:24:31;;;;;;;22.23;15.80;;;;;;;;;;5105553;28;20375;-73
2024/01/13 02:26:57;;;;;;;25.40;16.93;;;;;;;;;;5111733;28;20363;-73
2024/01/13 02:29:22;;;;;;;29.50;17.50;;;;;;;;;;5106151;28;20269;-73
2024/01/13 02:31:47;;;;;;;24.87;16.57;;;;;;;;;;5106651;28;20674;-73
2024/01/13 02:34:12;;;;;;;23.05;16.23;;;;;;;;;;5103989;28;20273;-73
2024/01/13 02:36:37;;;;;;;25.03;17.30;;;;;;;;;;5108599;28;20008;-73
2024/01/13 02:39:03;;;;;;;28.53;17.67;;;;;;;;;;5103882;28;20313;-73
2024/01/13 02:41:28;;;;;;;27.63;17.80;;;;;;;;;;5109469;28;20300;-73
2024/01/13 02:43:54;;;;;;;31.33;18.55;;;;;;;;;;5107008;28;20093;-73
2024/01/13 02:46:19;;;;;;;27.02;18.33;;;;;;;;;;5113454;28;20027;-73
2024/01/13 02:48:45;;;;;;;30.83;18.63;;;;;;;;;;5106669;28;20463;-73
2024/01/13 02:51:14;;;;;;;27.15;18.30;;;;;;;;;;5107428;28;20016;-73
2024/01/13 02:53:39;;;;;;;26.45;18.60;;;;;;;;;;5106412;28;20028;-73
2024/01/13 02:56:04;;;;;;;31.83;18.88;;;;;;;;;;5112171;28;20379;-73
2024/01/13 02:58:30;;;;;;;29.48;18.90;;;;;;;;;;5110992;28;20095;-73
2024/01/13 03:00:55;;;;;;;27.00;18.45;;;;;;;;;;5109017;28;20489;-73
2024/01/13 03:03:20;;;;;;;33.85;19.15;;;;;;;;;;5110457;28;20023;-73
2024/01/13 03:05:45;;;;;;;28.63;18.60;;;;;;;;;;5112418;28;20015;-73
2024/01/13 03:08:10;;;;;;;28.27;18.33;;;;;;;;;;5109466;28;20621;-73
2024/01/13 03:10:35;;;;;;;30.07;18.57;;;;;;;;;;5107924;28;20310;-73
2024/01/13 03:13:01;;;;;;;25.70;17.70;;;;;;;;;;5105836;28;20277;-73
2024/01/13 03:15:26;;;;;;;26.70;17.45;;;;;;;;;;5104293;28;20776;-74
2024/01/13 03:17:51;;;;;;;28.33;18.40;;;;;;;;;;5107156;28;20064;-73
2024/01/13 03:20:16;;;;;;;22.60;16.97;;;;;;;;;;5112292;28;20027;-73
2024/01/13 03:22:41;;;;;;;23.87;17.60;;;;;;;;;;5106954;28;20277;-73
2024/01/13 03:25:07;;;;;;;22.25;15.82;;;;;;;;;;5109534;28;20348;-73
2024/01/13 03:27:33;;;;;;;22.85;16.05;;;;;;;;;;5108439;28;20455;-73
2024/01/13 03:29:58;;;;;;;21.63;15.18;;;;;;;;;;5111197;28;20033;-73
2024/01/13 03:32:23;;;;;;;23.40;16.13;;;;;;;;;;5103418;28;20265;-73
2024/01/13 03:34:48;;;;;;;20.70;14.10;;;;;;;;;;5101633;28;20022;-73
2024/01/13 03:37:14;;;;;;;18.13;12.63;;;;;;;;;;5105746;28;20666;-73
2024/01/13 03:39:39;;;;;;;17.58;11.65;;;;;;;;;;5103256;28;20315;-74
2024/01/13 03:42:04;;;;;;;15.80;11.87;;;;;;;;;;5104662;28;20035;-73
2024/01/13 03:44:30;;;;;;;15.93;10.95;;;;;;;;;;5101796;28;20325;-73
2024/01/13 03:46:56;;;;;;;20.07;11.20;;;;;;;;;;5103465;28;20453;-73
2024/01/13 03:49:21;;;;;;;15.48;10.57;;;;;;;;;;5109922;28;20246;-73
2024/01/13 03:51:46;;;;;;;15.48;10.05;;;;;;;;;;5106565;28;20031;-73
2024/01/13 03:54:11;;;;;;;15.17;10.53;;;;;;;;;;5111969;28;20474;-73
2024/01/13 03:56:37;;;;;;;15.52;10.18;;;;;;;;;;5107264;28;20403;-73
2024/01/13 03:59:02;;;;;;;13.63;9.65;;;;;;;;;;5110707;28;20019;-73
2024/01/13 04:01:27;;;;;;;17.65;10.35;;;;;;;;;;5104630;28;20482;-74
2024/01/13 04:03:52;;;;;;;14.50;9.97;;;;;;;;;;5108194;28;20084;-73
2024/01/13 04:06:17;;;;;;;15.23;10.53;;;;;;;;;;5101609;28;20646;-73
2024/01/13 04:08:44;;;;;;;11.90;9.43;;;;;;;;;;5109332;28;20307;-73
2024/01/13 04:11:10;;;;;;;11.13;8.63;;;;;;;;;;5105900;28;20044;-73
2024/01/13 04:13:36;;;;;;;12.80;9.73;;;;;;;;;;5109235;28;20491;-73
2024/01/13 04:16:01;;;;;;;13.15;9.20;;;;;;;;;;5105195;28;20043;-73
2024/01/13 04:18:26;;;;;;;13.73;8.90;;;;;;;;;;5103679;28;20102;-73
2024/01/13 04:20:52;;;;;;;11.15;8.73;;;;;;;;;;5109812;28;20620;-73
2024/01/13 04:23:17;;;;;;;12.77;9.32;;;;;;;;;;5108104;28;20026;-73
2024/01/13 04:25:42;;;;;;;10.30;7.67;;;;;;;;;;5100724;28;20466;-73
2024/01/13 04:28:07;;;;;;;10.77;8.23;;;;;;;;;;5110798;28;20322;-73
2024/01/13 04:30:33;;;;;;;12.18;8.70;;;;;;;;;;5101255;28;20024;-73
2024/01/13 04:32:58;;;;;;;11.13;7.95;;;;;;;;;;5106819;28;20030;-73
2024/01/13 04:35:23;;;;;;;11.95;8.90;;;;;;;;;;5102147;28;20020;-73
2024/01/13 04:37:48;;;;;;;12.37;8.07;;;;;;;;;;5109441;28;20131;-73
2024/01/13 04:40:13;;;;;;;15.30;9.17;;;;;;;;;;5104232;28;20652;-73
2024/01/13 04:42:38;;;;;;;12.17;9.10;;;;;;;;;;5104031;28;20313;-73
2024/01/13 04:45:04;;;;;;;13.50;9.67;;;;;;;;;;5103921;28;20269;-73
2024/01/13 04:47:29;;;;;;;14.57;9.93;;;;;;;;;;5106962;28;20289;-73
2024/01/13 04:49:54;;;;;;;16.17;9.15;;;;;;;;;;5103366;28;20024;-73
2024/01/13 04:52:20;;;;;;;12.63;10.07;;;;;;;;;;5109632;28;20061;-73
2024/01/13 04:54:45;;;;;;;13.90;10.10;;;;;;;;;;5103848;28;20293;-73
2024/01/13 04:57:10;;;;;;;16.83;10.23;;;;;;;;;;5109243;28;20370;-73
2024/01/13 04:59:35;;;;;;;13.38;9.90;;;;;;;;;;5113682;28;20297;-73
2024/01/13 05:02:00;;;;;;;17.35;10.60;;;;;;;;;;5103560;28;20024;-73
2024/01/13 05:04:26;;;;;;;17.35;11.80;;;;;;;;;;5111360;28;20028;-73
2024/01/13 05:06:51;;;;;;;19.95;12.27;;;;;;;;;;5106517;28;20004;-73
2024/01/13 05:09:16;;;;;;;16.27;11.35;;;;;;;;;;5114287;28;20099;-73
2024/01/13 05:11:41;;;;;;;17.83;12.30;;;;;;;;;;5106719;28;20059;-73
2024/01/13 05:14:07;;;;;;;19.87;12.30;;;;;;;;;;5111804;28;20261;-73
2024/01/13 05:16:32;;;;;;;17.90;12.40;;;;;;;;;;5107036;28;20277;-73
2024/01/13 05:18:57;;;;;;;20.13;13.73;;;;;;;;;;5103483;28;20278;-73
2024/01/13 05:21:22;;;;;;;25.27;15.83;;;;;;;;;;5108736;28;20423;-73
2024/01/13 05:23:47;;;;;;;21.58;15.45;;;;;;;;;;5102569;28;20262;-73
2024/01/13 05:26:13;;;;;;;25.70;15.70;;;;;;;;;;5108434;28;20027;-73
2024/01/13 05:28:39;;;;;;;28.02;16.92;;;;;;;;;;5107375;28;20269;-73
2024/01/13 05:31:04;;;;;;;29.73;17.48;;;;;;;;;;5109846;28;20055;-73
2024/01/13 05:33:29;;;;;;;31.93;18.73;;;;;;;;;;5109058;28;20038;-73
2024/01/13 05:35:54;;;;;;;31.27;19.77;;;;;;;;;;5104563;28;20305;-73
2024/01/13 05:38:20;;;;;;;37.07;21.03;;;;;;;;;;5106007;28;20375;-73
2024/01/13 05:40:45;;;;;;;37.35;23.85;;;;;;;;;;5108657;28;20757;-73
2024/01/13 05:43:10;;;;;;;35.60;22.08;;;;;;;;;;5114563;28;20034;-73
2024/01/13 05:45:35;;;;;;;39.10;23.98;;;;;;;;;;5104177;28;20019;-73
2024/01/13 05:48:01;;;;;;;44.17;25.80;;;;;;;;;;5109688;28;20019;-73
2024/01/13 05:50:27;;;;;;;39.90;26.08;;;;;;;;;;5107152;28;20266;-73
2024/01/13 05:52:52;;;;;;;39.47;25.17;;;;;;;;;;5112827;28;20031;-73
2024/01/13 05:55:17;;;;;;;42.90;25.87;;;;;;;;;;5110881;28;20066;-73
2024/01/13 05:57:42;;;;;;;45.03;26.20;;;;;;;;;;5113127;28;20274;-73
2024/01/13 06:00:09;;;;;;;43.50;27.00;;;;;;;;;;5104496;28;20093;-73
2024/01/13 06:02:34;;;;;;;46.03;28.45;;;;;;;;;;5108675;28;20269;-73
2024/01/13 06:04:59;;;;;;;47.08;28.65;;;;;;;;;;5104238;28;20016;-73
2024/01/13 06:07:24;;;;;;;49.67;28.50;;;;;;;;;;5105819;28;20024;-73
2024/01/13 06:09:49;;;;;;;47.67;28.77;;;;;;;;;;5106140;28;20309;-73
2024/01/13 06:12:14;;;;;;;45.47;27.30;;;;;;;;;;5103006;28;20314;-73
2024/01/13 06:14:40;;;;;;;48.78;29.10;;;;;;;;;;5114406;28;20023;-73
2024/01/13 06:17:05;;;;;;;50.72;28.75;;;;;;;;;;5103007;28;20015;-73
2024/01/13 06:19:30;;;;;;;46.03;28.27;;;;;;;;;;5104259;28;20039;-73
2024/01/13 06:21:55;;;;;;;47.97;29.93;;;;;;;;;;5105046;28;20353;-73
2024/01/13 06:24:21;;;;;;;45.03;27.37;;;;;;;;;;5103268;28;20274;-73
2024/01/13 06:26:46;;;;;;;48.90;28.43;;;;;;;;;;5106206;28;20286;-73
2024/01/13 06:29:11;;;;;;;49.80;29.23;;;;;;;;;;5102444;28;20274;-73
2024/01/13 06:31:36;;;;;;;50.00;28.30;;;;;;;;;;5108347;28;20261;-73
2024/01/13 06:34:01;;;;;;;50.03;27.33;;;;;;;;;;5100904;28;20686;-73
2024/01/13 06:36:27;;;;;;;46.28;27.95;;;;;;;;;;5107967;28;20270;-73
2024/01/13 06:38:53;;;;;;;51.50;29.25;;;;;;;;;;5101868;28;20024;-73
2024/01/13 06:41:18;;;;;;;44.22;28.52;;;;;;;;;;5110382;28;20039;-73
2024/01/13 06:43:43;;;;;;;48.13;28.37;;;;;;;;;;5108008;28;20019;-73
2024/01/13 06:46:08;;;;;;;50.57;28.67;;;;;;;;;;5104054;28;20821;-73
2024/01/13 06:48:33;;;;;;;47.85;27.67;;;;;;;;;;5108314;28;20265;-73
2024/01/13 06:50:59;;;;;;;47.45;27.63;;;;;;;;;;5102425;28;20122;-73
2024/01/13 06:53:24;;;;;;;46.20;27.48;;;;;;;;;;5112850;28;20032;-73
2024/01/13 06:55:50;;;;;;;43.65;27.60;;;;;;;;;;5110672;28;20047;-73
2024/01/13 06:58:15;;;;;;;43.53;27.75;;;;;;;;;;5110783;28;20024;-73
2024/01/13 07:00:40;;;;;;;43.63;27.67;;;;;;;;;;5101538;28;20020;-73
2024/01/13 07:03:05;;;;;;;45.83;26.93;;;;;;;;;;5105360;28;20764;-73
2024/01/13 07:05:30;;;;;;;48.93;29.43;;;;;;;;;;5109667;28;20398;-73
2024/01/13 07:07:59;;;;;;;47.03;28.93;;;;;;;;;;5106436;28;20261;-73
2024/01/13 07:10:24;;;;;;;47.20;28.15;;;;;;;;;;5103817;28;20265;-73
2024/01/13 07:12:50;;;;;;;49.50;29.93;;;;;;;;;;5106727;28;20043;-73
2024/01/13 07:15:15;;;;;;;53.83;31.17;;;;;;;;;;5104372;28;20278;-73
2024/01/13 07:17:40;;;;;;;53.08;29.75;;;;;;;;;;5106079;28;20273;-73
2024/01/13 07:20:06;;;;;;;46.60;28.20;;;;;;;;;;5110609;28;20035;-73
2024/01/13 07:22:31;;;;;;;48.35;28.55;;;;;;;;;;5105615;28;20266;-73
2024/01/13 07:24:56;;;;;;;45.85;27.98;;;;;;;;;;5104265;28;20023;-73
2024/01/13 07:27:21;;;;;;;49.50;29.92;;;;;;;;;;5106684;28;20024;-73
2024/01/13 07:29:47;;;;;;;50.83;28.88;;;;;;;;;;5103776;28;20027;-73
2024/01/13 07:32:13;;;;;;;50.53;28.27;;;;;;;;;;5106663;28;20020;-73
2024/01/13 07:34:40;;;;;;;46.78;26.98;;;;;;;;;;5109579;28;20410;-73
2024/01/13 07:37:05;;;;;;;54.78;30.00;;;;;;;;;;5107630;28;20019;-73
2024/01/13 07:39:30;;;;;;;46.90;28.33;;;;;;;;;;5103927;28;20030;-73
2024/01/13 07:41:55;;;;;;;52.17;30.08;;;;;;;;;;5110173;28;20023;-73
2024/01/13 07:44:21;;;;;;;50.08;29.52;;;;;;;;;;5101315;28;20019;-73
2024/01/13 07:46:46;;;;;;;52.10;30.23;;;;;;;;;;5108142;28;20023;-73
2024/01/13 07:49:11;;;;;;;53.23;29.57;;;;;;;;;;5103470;28;20024;-73
2024/01/13 07:51:36;;;;;;;51.03;28.23;;;;;;;;;;5102694;28;20309;-73
2024/01/13 07:54:02;;;;;;;45.88;27.70;;;;;;;;;;5108953;28;20102;-73
2024/01/13 07:56:27;;;;;;;50.80;28.38;;;;;;;;;;5105234;28;20070;-73
2024/01/13 07:58:52;;;;;;;47.13;27.83;;;;;;;;;;5107736;28;20054;-73
2024/01/13 08:01:18;;;;;;;49.70;28.77;;;;;;;;;;5102811;28;20020;-73
2024/01/13 08:03:43;;;;;;;51.22;28.75;;;;;;;;;;5112499;28;20257;-73
2024/01/13 08:06:09;;;;;;;46.78;28.02;;;;;;;;;;5107060;28;20028;-73
2024/01/13 08:08:34;;;;;;;53.13;29.92;;;;;;;;;;5107373;28;20459;-73
2024/01/13 08:10:59;;;;;;;47.60;28.20;;;;;;;;;;5107745;28;20102;-73
2024/01/13 08:13:24;;;;;;;46.23;28.03;;;;;;;;;;5105825;28;20760;-73
2024/01/13 08:15:49;;;;;;;47.55;26.88;;;;;;;;;;5103648;28;20295;-73
2024/01/13 08:18:15;;;;;;;44.50;26.93;;;;;;;;;;5108140;28;20466;-73
2024/01/13 08:20:41;;;;;;;47.47;26.95;;;;;;;;;;5101468;28;20300;-73
2024/01/13 08:23:06;;;;;;;47.80;26.98;;;;;;;;;;5106993;28;20016;-73
2024/01/13 08:25:31;;;;;;;48.50;28.43;;;;;;;;;;5100764;28;20613;-73
2024/01/13 08:27:56;;;;;;;48.60;27.63;;;;;;;;;;5106366;28;20313;-73
2024/01/13 08:30:21;;;;;;;51.67;29.30;;;;;;;;;;5105578;28;20265;-73
2024/01/13 08:32:47;;;;;;;53.70;29.48;;;;;;;;;;5105311;28;20364;-73
2024/01/13 08:35:12;;;;;;;50.10;29.13;;;;;;;;;;5108309;28;20026;-73
2024/01/13 08:37:37;;;;;;;55.85;29.55;;;;;;;;;;5108622;28;20266;-73
2024/01/13 08:40:04;;;;;;;50.10;28.73;;;;;;;;;;5106620;28;20043;-73
2024/01/13 08:42:30;;;;;;;52.88;29.08;;;;;;;;;;5105742;28;20262;-73
2024/01/13 08:44:55;;;;;;;50.22;29.60;;;;;;;;;;5106636;28;20124;-73
2024/01/13 08:47:20;;;;;;;52.23;29.00;;;;;;;;;;5110888;28;20016;-73
2024/01/13 08:49:45;;;;;;;53.42;29.33;;;;;;;;;;5105605;28;20314;-73
2024/01/13 08:52:10;;;;;;;52.65;29.02;;;;;;;;;;5108079;28;20027;-73
2024/01/13 08:54:36;;;;;;;56.33;30.10;;;;;;;;;;5110326;28;20042;-73
2024/01/13 08:57:02;;;;;;;53.45;30.60;;;;;;;;;;5108634;28;20274;-73
2024/01/13 08:59:28;;;;;;;57.22;30.98;;;;;;;;;;5110364;28;20450;-73
2024/01/13 09:01:54;;;;;;;53.63;31.00;;;;;;;;;;5107407;28;20107;-73
2024/01/13 09:04:19;;;;;;;56.40;30.92;;;;;;;;;;5114572;28;20744;-73
2024/01/13 09:06:45;;;;;;;58.03;30.93;;;;;;;;;;5109495;27;20106;-73
2024/01/13 09:09:10;;;;;;;52.45;30.38;;;;;;;;;;5112276;28;20297;-73
2024/01/13 09:11:36;;;;;;;56.72;32.20;;;;;;;;;;5109586;28;20035;-73
2024/01/13 09:14:01;;;;;;;58.08;31.17;;;;;;;;;;5107092;27;20053;-73
2024/01/13 09:16:26;;;;;;;55.75;31.42;;;;;;;;;;5111351;28;20031;-73
2024/01/13 09:18:52;;;;;;;53.47;30.67;;;;;;;;;;5105250;28;20158;-73
2024/01/13 09:21:17;;;;;;;54.20;30.53;;;;;;;;;;5110004;28;20285;-73
2024/01/13 09:23:42;;;;;;;50.65;29.63;;;;;;;;;;5108979;28;21085;-73
2024/01/13 09:26:07;;;;;;;51.22;29.48;;;;;;;;;;5108656;28;20481;-73
2024/01/13 09:28:33;;;;;;;52.07;29.83;;;;;;;;;;5112126;28;20113;-73
2024/01/13 09:30:58;;;;;;;49.20;29.27;;;;;;;;;;5104559;28;20277;-73
2024/01/13 09:33:24;;;;;;;51.05;30.88;;;;;;;;;;5109707;28;20038;-73
2024/01/13 09:35:49;;;;;;;49.95;28.88;;;;;;;;;;5104882;28;20080;-73
2024/01/13 09:38:14;;;;;;;48.65;28.45;;;;;;;;;;5107453;28;20034;-73
2024/01/13 09:40:41;;;;;;;47.17;28.70;;;;;;;;;;5107162;28;20032;-73
2024/01/13 09:43:09;;;;;;;48.40;28.25;;;;;;;;;;5105382;28;20349;-73
2024/01/13 09:45:35;;;;;;;49.03;28.27;;;;;;;;;;5105864;28;20065;-73
2024/01/13 09:48:03;;;;;;;48.30;27.65;;;;;;;;;;5113426;28;20490;-73
2024/01/13 09:50:28;;;;;;;47.95;28.42;;;;;;;;;;5105816;28;20038;-73
2024/01/13 09:52:53;;;;;;;46.03;28.50;;;;;;;;;;5111460;28;20454;-73
2024/01/13 09:55:19;;;;;;;42.72;27.00;;;;;;;;;;5112499;28;20293;-72
2024/01/13 09:57:45;;;;;;;46.47;27.67;;;;;;;;;;5104296;28;20028;-73
2024/01/13 10:00:10;;;;;;;44.38;25.90;;;;;;;;;;5104155;28;20123;-72
2024/01/13 10:02:36;;;;;;;45.45;26.42;;;;;;;;;;5108912;28;20020;-72
2024/01/13 10:05:02;;;;;;;44.33;24.83;;;;;;;;;;5104199;28;20020;-73
2024/01/13 10:07:29;;;;;;;45.97;26.20;;;;;;;;;;5111913;28;20053;-74
2024/01/13 10:09:54;;;;;;;41.72;26.45;;;;;;;;;;5103928;28;20031;-72
2024/01/13 10:12:20;;;;;;;44.93;26.77;;;;;;;;;;5104561;28;20111;-73
2024/01/13 10:14:45;;;;;;;44.05;26.55;;;;;;;;;;5104233;28;20269;-73
2024/01/13 10:17:11;;;;;;;42.57;27.07;;;;;;;;;;5104444;28;20016;-72
2024/01/13 10:19:42;;;;;;;46.72;26.77;;;;;;;;;;5108160;28;20288;-72
2024/01/13 10:22:07;;;;;;;39.22;25.45;;;;;;;;;;5106941;28;20024;-72
2024/01/13 10:24:36;;;;;;;45.97;26.38;;;;;;;;;;5104430;28;20016;-73
2024/01/13 10:27:01;;;;;;;42.75;27.67;;;;;;;;;;5104674;28;20056;-73
2024/01/13 10:29:28;;;;;;;42.78;26.77;;;;;;;;;;5106105;28;20085;-73
2024/01/13 10:31:53;;;;;;;42.83;26.35;;;;;;;;;;5110170;28;20020;-73
2024/01/13 10:34:21;;;;;;;41.23;24.43;;;;;;;;;;5106343;28;20031;-73
2024/01/13 10:36:46;;;;;;;39.00;24.83;;;;;;;;;;5111747;28;20276;-73
2024/01/13 10:39:11;;;;;;;41.00;25.65;;;;;;;;;;5105103;28;20039;-72
2024/01/13 10:41:44;;;;;;;39.55;24.63;;;;;;;;;;5111946;28;20028;-72
2024/01/13 10:44:09;;;;;;;39.58;24.27;;;;;;;;;;5105415;28;20098;-72
2024/01/13 10:46:38;;;;;;;41.30;24.13;;;;;;;;;;5108258;28;20126;-72
2024/01/13 10:49:08;;;;;;;41.30;25.55;;;;;;;;;;5102065;28;20410;-72
2024/01/13 10:51:35;;;;;;;41.67;25.90;;;;;;;;;;5104518;28;20158;-72
2024/01/13 10:54:01;;;;;;;43.33;25.48;;;;;;;;;;5106053;28;20023;-73
2024/01/13 10:56:27;;;;;;;41.67;25.45;;;;;;;;;;5100682;28;20430;-72
2024/01/13 10:58:54;;;;;;;42.92;25.90;;;;;;;;;;5108777;28;20020;-72
2024/01/13 11:01:19;;;;;;;41.55;25.48;;;;;;;;;;5102964;28;20088;-72
2024/01/13 11:03:45;;;;;;;40.55;26.05;;;;;;;;;;5108368;28;20027;-72
2024/01/13 11:06:11;;;;;;;40.63;25.70;;;;;;;;;;5111972;28;20391;-73
2024/01/13 11:08:36;;;;;;;45.20;27.77;;;;;;;;;;5106584;28;20016;-72
2024/01/13 11:11:01;;;;;;;46.65;27.17;;;;;;;;;;5110793;28;20043;-72
2024/01/13 11:13:29;;;;;;;46.45;27.00;;;;;;;;;;5103947;28;20107;-73
2024/01/13 11:15:57;;;;;;;43.17;25.83;;;;;;;;;;5104791;28;20069;-72
2024/01/13 11:18:22;;;;;;;45.40;27.02;;;;;;;;;;5102561;28;20135;-72
2024/01/13 11:21:03;;;;;;;44.55;27.08;;;;;;;;;;5104448;28;20540;-73
2024/01/13 11:23:38;;;;;;;41.38;25.83;;;;;;;;;;5104492;28;20091;-72
2024/01/13 11:26:03;;;;;;;41.78;25.77;;;;;;;;;;5107576;28;20471;-72
2024/01/13 11:28:42;;;;;;;45.05;29.55;;;;;;;;;;5105316;28;20015;-75
2024/01/13 11:31:27;;;;;;;39.83;24.95;;;;;;;;;;5103679;28;20095;-73
2024/01/13 11:33:53;;;;;;;44.17;25.35;;;;;;;;;;5100041;28;20059;-72
2024/01/13 11:36:19;;;;;;;44.08;27.73;;;;;;;;;;5106167;28;20017;-75
2024/01/13 11:38:45;;;;;;;37.50;24.53;;;;;;;;;;5105915;28;20104;-74
2024/01/13 11:41:10;;;;;;;40.85;24.65;;;;;;;;;;5108518;28;20342;-74
2024/01/13 11:43:39;;;;;;;39.00;26.08;;;;;;;;;;5110065;28;20031;-74
2024/01/13 11:46:09;;;;;;;38.10;25.15;;;;;;;;;;5103065;28;20015;-74
2024/01/13 11:48:43;;;;;;;40.33;24.25;;;;;;;;;;5105590;28;20015;-75
2024/01/13 11:51:10;;;;;;;37.30;23.15;;;;;;;;;;5099589;28;20024;-75
2024/01/13 11:53:36;;;;;;;40.67;23.48;;;;;;;;;;5111885;28;20040;-74
2024/01/13 11:56:03;;;;;;;40.72;24.30;;;;;;;;;;5111346;28;20136;-74
2024/01/13 11:58:29;;;;;;;37.53;24.10;;;;;;;;;;5106068;28;20034;-74
2024/01/13 12:00:54;;;;;;;35.97;22.27;;;;;;;;;;5107956;28;20482;-74
2024/01/13 12:03:19;;;;;;;37.83;23.33;;;;;;;;;;5111346;28;20020;-74
2024/01/13 12:05:44;;;;;;;38.42;23.60;;;;;;;;;;5109299;28;20035;-74
2024/01/13 12:08:10;;;;;;;35.88;23.00;;;;;;;;;;5113691;28;20015;-75
2024/01/13 12:10:44;;;;;;;38.05;22.58;;;;;;;;;;5115796;28;20391;-74
2024/01/13 12:13:15;;;;;;;35.65;22.05;;;;;;;;;;5108103;28;20023;-74
2024/01/13 12:15:45;;;;;;;37.70;23.73;;;;;;;;;;5111618;28;20019;-74
2024/01/13 12:18:10;;;;;;;36.50;22.58;;;;;;;;;;5110988;28;20051;-75
2024/01/13 12:20:36;;;;;;;37.65;24.08;;;;;;;;;;5105033;28;20063;-75
2024/01/13 12:23:02;;;;;;;34.38;21.40;;;;;;;;;;5107783;28;20023;-75
2024/01/13 12:25:29;;;;;;;35.30;21.35;;;;;;;;;;5110935;28;20123;-75
2024/01/13 12:27:54;;;;;;;34.65;21.08;;;;;;;;;;5107642;28;20103;-75
2024/01/13 12:30:19;;;;;;;31.23;20.67;;;;;;;;;;5105611;28;20110;-75
2024/01/13 12:32:45;;;;;;;33.97;21.13;;;;;;;;;;5110958;28;20027;-76
2024/01/13 12:35:12;;;;;;;34.28;20.95;;;;;;;;;;5108771;28;20273;-75
2024/01/13 12:37:37;;;;;;;30.27;20.38;;;;;;;;;;5107877;28;20439;-75
2024/01/13 12:40:05;;;;;;;34.03;20.92;;;;;;;;;;5107038;28;20111;-75
2024/01/13 12:42:30;;;;;;;33.72;20.63;;;;;;;;;;5112764;28;20376;-75
2024/01/13 12:44:55;;;;;;;32.65;19.48;;;;;;;;;;5110766;28;20027;-75
2024/01/13 12:47:20;;;;;;;34.73;21.03;;;;;;;;;;5110519;28;20011;-75
2024/01/13 12:49:45;;;;;;;34.23;21.17;;;;;;;;;;5111183;28;20273;-74
2024/01/13 12:52:12;;;;;;;34.73;19.70;;;;;;;;;;5105891;28;20749;-74
2024/01/13 12:54:38;;;;;;;34.53;20.85;;;;;;;;;;5107856;28;20269;-75
2024/01/13 12:57:03;;;;;;;33.58;20.48;;;;;;;;;;5109267;28;20385;-75
2024/01/13 12:59:29;;;;;;;35.05;20.55;;;;;;;;;;5111451;28;20043;-75
2024/01/13 13:01:55;;;;;;;32.05;20.17;;;;;;;;;;5103602;28;20042;-75
2024/01/13 13:04:21;;;;;;;33.75;21.45;;;;;;;;;;5106781;28;20459;-75
2024/01/13 13:06:46;;;;;;;35.42;21.13;;;;;;;;;;5105229;28;20020;-75
2024/01/13 13:09:12;;;;;;;36.42;20.10;;;;;;;;;;5097253;28;20023;-75
2024/01/13 13:11:38;;;;;;;37.50;20.58;;;;;;;;;;5109743;28;20073;-75
2024/01/13 13:14:04;;;;;;;34.17;20.52;;;;;;;;;;5106141;28;20017;-75
2024/01/13 13:16:29;;;;;;;34.20;20.23;;;;;;;;;;5109664;28;20442;-75
2024/01/13 13:18:54;;;;;;;34.58;21.20;;;;;;;;;;5103125;28;20027;-75
2024/01/13 13:21:21;;;;;;;34.22;20.85;;;;;;;;;;5109444;28;20074;-75
2024/01/13 13:23:46;;;;;;;32.17;20.25;;;;;;;;;;5104914;28;20066;-76
2024/01/13 13:26:11;;;;;;;34.33;20.40;;;;;;;;;;5113821;28;20019;-77
2024/01/13 13:28:37;;;;;;;34.78;19.92;;;;;;;;;;5106422;28;20258;-75
2024/01/13 13:31:07;;;;;;;34.38;20.02;;;;;;;;;;5107401;28;20016;-75
2024/01/13 13:33:33;;;;;;;35.00;19.60;;;;;;;;;;5104972;28;20035;-76
2024/01/13 13:35:58;;;;;;;35.25;19.95;;;;;;;;;;5106086;28;20043;-76
2024/01/13 13:38:23;;;;;;;33.43;20.10;;;;;;;;;;5106410;28;20050;-76
2024/01/13 13:40:48;;;;;;;35.65;19.77;;;;;;;;;;5105694;28;20297;-75
2024/01/13 13:43:15;;;;;;;36.33;21.15;;;;;;;;;;5099957;28;20043;-76
2024/01/13 13:45:42;;;;;;;35.25;20.70;;;;;;;;;;5105731;28;20035;-75
2024/01/13 13:48:07;;;;;;;34.97;21.13;;;;;;;;;;5110450;28;20016;-76
2024/01/13 13:50:34;;;;;;;38.47;20.58;;;;;;;;;;5108685;28;20022;-75
2024/01/13 13:53:00;;;;;;;34.55;20.80;;;;;;;;;;5105698;28;20132;-75
2024/01/13 13:55:27;;;;;;;36.45;21.80;;;;;;;;;;5106228;28;20045;-75
2024/01/13 13:57:52;;;;;;;38.88;21.13;;;;;;;;;;5104147;28;20023;-75
2024/01/13 14:00:17;;;;;;;40.77;21.83;;;;;;;;;;5104139;28;20065;-75
2024/01/13 14:02:44;;;;;;;46.03;24.45;;;;;;;;;;5106876;28;20666;-75
2024/01/13 14:05:09;;;;;;;41.97;23.27;;;;;;;;;;5101877;28;20466;-76
2024/01/13 14:07:34;;;;;;;46.93;23.27;;;;;;;;;;5113134;28;20092;-76
2024/01/13 14:09:59;;;;;;;41.77;22.73;;;;;;;;;;5111250;28;20301;-76